createdAt,value
2023-05-18T12:33:22.509Z,16.75
2023-05-18T12:35:51.028Z,16.82
2023-05-18T12:38:19.480Z,17.41
2023-05-18T12:40:49.061Z,17.04
2023-05-18T12:43:17.751Z,16.44
2023-05-18T12:45:46.634Z,16.59
2023-05-18T12:48:15.391Z,16.51
2023-05-18T12:50:51.738Z,16.65
2023-05-18T12:53:20.366Z,16.54
2023-05-18T12:55:57.984Z,16.53
2023-05-18T12:58:26.424Z,16.63
2023-05-18T13:00:54.916Z,16.64
2023-05-18T13:03:24.396Z,16.49
2023-05-18T13:06:05.795Z,16.48
2023-05-18T13:08:35.268Z,16.19
2023-05-18T13:11:12.802Z,16.33
2023-05-18T13:13:58.922Z,16.58
2023-05-18T13:16:29.716Z,16.50
2023-05-18T13:18:59.355Z,16.69
2023-05-18T13:21:29.326Z,16.33
2023-05-18T13:23:57.734Z,16.67
2023-05-18T13:26:26.438Z,16.39
2023-05-18T13:28:56.266Z,16.30
2023-05-18T13:31:25.647Z,16.32
2023-05-18T13:33:54.167Z,16.76
2023-05-18T13:36:22.979Z,16.56
2023-05-18T13:38:52.714Z,16.30
2023-05-18T13:41:21.344Z,16.67
2023-05-18T13:43:49.546Z,16.83
2023-05-18T13:46:18.944Z,16.82
2023-05-18T13:48:47.232Z,16.39
2023-05-18T13:51:16.444Z,16.53
2023-05-18T13:53:45.320Z,16.60
2023-05-18T13:56:15.166Z,16.55
2023-05-18T13:58:43.667Z,16.35
2023-05-18T14:01:13.816Z,16.40
2023-05-18T14:03:42.200Z,16.22
2023-05-18T14:06:10.843Z,16.36
2023-05-18T14:08:39.065Z,16.12
2023-05-18T14:11:07.534Z,16.19
2023-05-18T14:13:37.533Z,15.91
2023-05-18T14:16:06.775Z,16.16
2023-05-18T14:18:34.942Z,15.92
2023-05-18T14:21:03.698Z,16.27
2023-05-18T14:23:31.960Z,16.50
2023-05-18T14:26:00.580Z,16.56
2023-05-18T14:28:30.213Z,16.20
2023-05-18T14:31:00.459Z,16.20
2023-05-18T14:33:28.639Z,16.01
2023-05-18T14:35:58.285Z,15.83
2023-05-18T14:38:27.131Z,15.97
2023-05-18T14:40:55.546Z,16.38
2023-05-18T14:43:23.752Z,16.45
2023-05-18T14:46:04.173Z,16.51
2023-05-18T14:48:36.794Z,16.16
2023-05-18T14:51:05.685Z,16.12
2023-05-18T14:53:33.828Z,16.18
2023-05-18T14:56:06.133Z,16.52
2023-05-18T14:58:34.434Z,16.16
2023-05-18T15:01:02.960Z,16.12
2023-05-18T15:03:31.335Z,16.25
2023-05-18T15:06:01.202Z,16.33
2023-05-18T15:08:29.529Z,16.16
2023-05-18T15:10:58.117Z,16.55
2023-05-18T15:13:26.326Z,16.71
2023-05-18T15:15:55.083Z,16.73
2023-05-18T15:18:23.248Z,16.46
2023-05-18T15:20:51.707Z,16.46
2023-05-18T15:23:21.221Z,16.19
2023-05-18T15:25:51.565Z,16.66
2023-05-18T15:28:19.689Z,16.53
2023-05-18T15:30:48.230Z,16.39
2023-05-18T15:33:16.460Z,16.31
2023-05-18T15:35:44.901Z,16.86
2023-05-18T15:38:16.158Z,16.78
2023-05-18T15:40:47.857Z,17.06
2023-05-18T15:43:16.008Z,17.09
2023-05-18T15:45:44.544Z,17.40
2023-05-18T15:48:12.765Z,17.95
2023-05-18T15:50:41.192Z,19.10
2023-05-18T15:53:10.616Z,18.88
2023-05-18T15:55:39.409Z,18.92
2023-05-18T15:58:10.007Z,18.59
2023-05-18T16:00:38.419Z,18.05
2023-05-18T16:03:07.013Z,17.20
2023-05-18T16:05:35.850Z,16.94
2023-05-18T16:08:03.973Z,17.32
2023-05-18T16:10:32.543Z,17.32
2023-05-18T16:13:05.818Z,17.26
2023-05-18T16:15:36.900Z,17.68
2023-05-18T16:18:05.744Z,17.77
2023-05-18T16:20:34.367Z,18.26
2023-05-18T16:23:02.941Z,19.18
2023-05-18T16:25:32.743Z,19.25
2023-05-18T16:28:01.048Z,19.97
2023-05-18T16:30:29.785Z,21.72
2023-05-18T16:33:00.451Z,20.92
2023-05-18T16:35:30.981Z,20.98
2023-05-18T16:37:59.107Z,22.02
2023-05-18T16:40:27.612Z,22.46
2023-05-18T16:42:55.960Z,23.34
2023-05-18T16:45:26.394Z,21.84
2023-05-18T16:47:55.413Z,21.70
2023-05-18T16:50:25.347Z,20.89
2023-05-18T16:52:56.122Z,21.36
2023-05-18T16:55:24.960Z,19.68
2023-05-18T16:57:53.252Z,19.17
2023-05-18T17:00:22.943Z,19.09
2023-05-18T17:02:52.580Z,19.86
2023-05-18T17:05:23.113Z,20.33
2023-05-18T17:07:53.804Z,20.92
2023-05-18T17:10:22.251Z,20.28
2023-05-18T17:12:50.472Z,19.85
2023-05-18T17:15:18.959Z,17.83
2023-05-18T17:17:47.127Z,17.38
2023-05-18T17:20:15.607Z,17.46
2023-05-18T17:22:43.736Z,16.95
2023-05-18T17:25:16.493Z,16.82
2023-05-18T17:27:44.923Z,16.33
2023-05-18T17:30:13.680Z,16.15
2023-05-18T17:32:42.151Z,16.10
2023-05-18T17:35:13.318Z,15.93
2023-05-18T17:37:42.359Z,15.82
2023-05-18T17:40:11.455Z,15.38
2023-05-18T17:42:40.971Z,15.19
2023-05-18T17:45:10.946Z,15.00
2023-05-18T17:47:41.555Z,15.01
2023-05-18T17:50:10.517Z,14.65
2023-05-18T17:52:38.892Z,14.24
2023-05-18T17:55:08.532Z,14.30
2023-05-18T17:57:36.659Z,14.21
2023-05-18T18:00:09.245Z,14.20
2023-05-18T18:02:37.522Z,14.11
2023-05-18T18:05:06.338Z,13.92
2023-05-18T18:07:34.640Z,13.74
2023-05-18T18:10:03.113Z,13.77
2023-05-18T18:12:31.331Z,13.73
2023-05-18T18:14:59.742Z,13.47
2023-05-18T18:17:29.568Z,13.44
2023-05-18T18:19:58.574Z,13.20
2023-05-18T18:22:26.730Z,13.23
2023-05-18T18:24:55.128Z,13.18
2023-05-18T18:27:23.447Z,13.02
2023-05-18T18:29:54.261Z,12.94
2023-05-18T18:32:22.390Z,12.87
2023-05-18T18:34:52.257Z,12.76
2023-05-18T18:37:20.542Z,12.87
2023-05-18T18:39:48.960Z,12.57
2023-05-18T18:42:21.113Z,12.51
2023-05-18T18:44:52.986Z,12.40
2023-05-18T18:47:21.217Z,12.45
2023-05-18T18:49:49.689Z,12.30
2023-05-18T18:52:19.403Z,12.11
2023-05-18T18:54:47.878Z,12.05
2023-05-18T18:57:16.047Z,11.82
2023-05-18T18:59:44.766Z,11.87
2023-05-18T19:02:12.922Z,11.82
2023-05-18T19:04:41.506Z,11.66
2023-05-18T19:07:09.648Z,11.51
2023-05-18T19:09:39.494Z,11.31
2023-05-18T19:12:08.914Z,11.26
2023-05-18T19:14:37.515Z,11.16
2023-05-18T19:17:06.036Z,10.99
2023-05-18T19:19:34.581Z,10.88
2023-05-18T19:22:02.777Z,10.84
2023-05-18T19:24:31.281Z,10.74
2023-05-18T19:27:01.226Z,10.66
2023-05-18T19:29:29.631Z,10.57
2023-05-18T19:31:58.254Z,10.45
2023-05-18T19:34:26.736Z,10.38
2023-05-18T19:36:54.933Z,10.30
2023-05-18T19:39:23.420Z,10.34
2023-05-18T19:41:51.632Z,10.20
2023-05-18T19:44:21.801Z,10.17
2023-05-18T19:46:50.158Z,10.13
2023-05-18T19:49:18.610Z,10.05
2023-05-18T19:51:48.267Z,10.00
2023-05-18T19:54:17.733Z,9.92
2023-05-18T19:56:45.841Z,9.89
2023-05-18T19:59:14.307Z,9.92
2023-05-18T20:01:45.352Z,9.92
2023-05-18T20:04:14.241Z,9.83
2023-05-18T20:06:42.542Z,9.72
2023-05-18T20:09:11.249Z,9.67
2023-05-18T20:11:39.401Z,9.59
2023-05-18T20:14:08.081Z,9.42
2023-05-18T20:16:39.728Z,9.33
2023-05-18T20:19:10.163Z,9.33
2023-05-18T20:21:38.529Z,9.33
2023-05-18T20:24:07.121Z,9.49
2023-05-18T20:26:35.879Z,9.43
2023-05-18T20:29:04.357Z,9.24
2023-05-18T20:31:32.937Z,9.11
2023-05-18T20:34:01.500Z,9.10
2023-05-18T20:36:32.562Z,9.08
2023-05-18T20:39:01.024Z,9.05
2023-05-18T20:41:29.704Z,8.98
2023-05-18T20:44:02.231Z,8.88
2023-05-18T20:46:31.154Z,8.82
2023-05-18T20:49:00.402Z,8.74
2023-05-18T20:51:28.538Z,8.70
2023-05-18T20:53:58.379Z,8.47
2023-05-18T20:56:26.714Z,8.23
2023-05-18T20:58:55.306Z,8.45
2023-05-18T21:01:23.911Z,8.35
2023-05-18T21:03:52.606Z,8.25
2023-05-18T21:06:20.945Z,8.16
2023-05-18T21:08:49.495Z,8.13
2023-05-18T21:11:19.770Z,8.02
2023-05-18T21:13:48.309Z,8.05
2023-05-18T21:16:16.702Z,7.99
2023-05-18T21:18:45.190Z,7.92
2023-05-18T21:21:13.415Z,7.90
2023-05-18T21:23:42.019Z,7.87
2023-05-18T21:26:10.221Z,7.82
2023-05-18T21:28:40.477Z,7.81
2023-05-18T21:31:08.756Z,7.79
2023-05-18T21:33:37.380Z,7.74
2023-05-18T21:36:06.496Z,7.76
2023-05-18T21:38:35.398Z,7.72
2023-05-18T21:41:03.611Z,7.77
2023-05-18T21:43:32.010Z,7.69
2023-05-18T21:46:02.327Z,7.66
2023-05-18T21:48:30.939Z,7.62
2023-05-18T21:50:59.129Z,7.64
2023-05-18T21:53:27.631Z,7.67
2023-05-18T21:55:56.006Z,7.56
2023-05-18T21:58:24.642Z,7.51
2023-05-18T22:00:53.045Z,7.56
2023-05-18T22:03:23.592Z,7.48
2023-05-18T22:05:52.590Z,7.50
2023-05-18T22:08:21.193Z,7.38
2023-05-18T22:10:49.305Z,7.26
2023-05-18T22:13:17.692Z,7.16
2023-05-18T22:15:45.946Z,7.09
2023-05-18T22:18:14.328Z,6.99
2023-05-18T22:20:44.661Z,6.97
2023-05-18T22:23:13.085Z,6.90
2023-05-18T22:25:41.231Z,6.87
2023-05-18T22:28:17.314Z,6.87
2023-05-18T22:30:45.965Z,6.82
2023-05-18T22:33:14.433Z,6.70
2023-05-18T22:35:44.443Z,6.66
2023-05-18T22:38:13.267Z,6.33
2023-05-18T22:40:41.409Z,6.63
2023-05-18T22:43:09.841Z,6.60
2023-05-18T22:45:40.249Z,6.66
2023-05-18T22:48:08.769Z,6.61
2023-05-18T22:50:36.953Z,6.67
2023-05-18T22:53:10.223Z,6.60
2023-05-18T22:55:38.576Z,6.53
2023-05-18T22:58:07.075Z,6.51
2023-05-18T23:00:35.425Z,6.55
2023-05-18T23:03:03.868Z,6.55
2023-05-18T23:05:32.793Z,6.49
2023-05-18T23:08:02.816Z,6.40
2023-05-18T23:10:32.965Z,6.36
2023-05-18T23:13:01.507Z,6.34
2023-05-18T23:15:30.529Z,6.35
2023-05-18T23:17:58.941Z,6.33
2023-05-18T23:20:27.432Z,6.25
2023-05-18T23:22:55.611Z,6.27
2023-05-18T23:25:24.010Z,6.24
2023-05-18T23:27:53.651Z,6.21
2023-05-18T23:30:22.328Z,6.16
2023-05-18T23:32:51.158Z,6.17
2023-05-18T23:35:20.471Z,6.15
2023-05-18T23:37:50.325Z,6.15
2023-05-18T23:40:20.401Z,6.05
2023-05-18T23:42:49.169Z,6.07
2023-05-18T23:45:19.912Z,6.02
2023-05-18T23:47:48.711Z,5.97
2023-05-18T23:50:20.762Z,6.02
2023-05-18T23:52:50.868Z,6.03
2023-05-18T23:55:24.137Z,5.84
2023-05-18T23:57:52.958Z,6.01
